Time;durP1;ratioP1;P1;durP2;ratioP2;P2;SDS_P1;SDS_P2;PMS_P1;PMS_P2;Temp;Humidity;BMP_temperature;BMP_pressure;BME280_temperature;BME280_humidity;BME280_pressure;Samples;Min_cycle;Max_cycle;Signal;HPM_P1;HPM_P2
2022/01/01 00:02:01;;;;;;;133.63;74.97;;;13.00;99.90;;;;;;4962133;28;20319;-75
2022/01/01 00:04:28;;;;;;;137.47;80.70;;;13.00;99.90;;;;;;4959668;28;20220;-76
2022/01/01 00:06:56;;;;;;;132.37;72.43;;;13.00;99.90;;;;;;4955222;28;20279;-75
2022/01/01 00:09:23;;;;;;;243.17;133.57;;;13.00;99.90;;;;;;4953087;28;20211;-76
2022/01/01 00:11:50;;;;;;;212.97;114.57;;;13.00;99.90;;;;;;4952289;29;20228;-75
2022/01/01 00:14:19;;;;;;;235.13;124.30;;;13.00;99.90;;;;;;4952432;28;20217;-75
2022/01/01 00:16:49;;;;;;;644.20;383.63;;;12.90;99.90;;;;;;4939628;29;20217;-76
2022/01/01 00:19:21;;;;;;;143.63;68.57;;;12.90;99.90;;;;;;4946352;28;20768;-78
2022/01/01 00:21:48;;;;;;;828.97;503.20;;;12.90;99.90;;;;;;4959189;28;20570;-76
2022/01/01 00:24:15;;;;;;;1150.60;578.63;;;13.00;99.90;;;;;;4955395;28;20267;-75
2022/01/01 00:26:42;;;;;;;481.40;271.33;;;13.00;99.90;;;;;;4957309;28;20572;-75
2022/01/01 00:29:09;;;;;;;291.03;155.00;;;12.90;99.90;;;;;;4951548;29;20311;-75
2022/01/01 00:31:36;;;;;;;416.60;211.33;;;13.00;99.90;;;;;;4955365;28;20739;-75
2022/01/01 00:34:03;;;;;;;673.07;350.13;;;13.00;99.90;;;;;;4960011;28;20212;-75
2022/01/01 00:36:31;;;;;;;921.63;500.37;;;13.00;99.90;;;;;;4950337;28;20216;-75
2022/01/01 00:38:58;;;;;;;1999.90;831.57;;;13.00;99.90;;;;;;4935248;29;20216;-76
2022/01/01 00:41:28;;;;;;;347.03;180.67;;;13.00;99.90;;;;;;4956455;28;20626;-75
2022/01/01 00:43:58;;;;;;;299.07;131.27;;;13.10;99.90;;;;;;4955976;28;20638;-75
2022/01/01 00:46:26;;;;;;;248.23;107.20;;;13.10;99.90;;;;;;4961877;28;20208;-75
2022/01/01 00:48:54;;;;;;;406.37;186.97;;;13.00;99.90;;;;;;4955025;28;20219;-76
2022/01/01 00:51:26;;;;;;;1230.47;577.23;;;13.00;99.90;;;;;;4959892;28;20591;-75
2022/01/01 00:53:53;;;;;;;418.47;187.17;;;13.10;99.90;;;;;;4954542;28;20282;-76
2022/01/01 00:56:23;;;;;;;1234.30;560.07;;;13.00;99.90;;;;;;4959996;28;20204;-74
2022/01/01 00:58:50;;;;;;;1255.50;454.23;;;13.00;99.90;;;;;;4937434;28;20299;-76
2022/01/01 01:01:17;;;;;;;334.33;133.13;;;13.00;99.90;;;;;;4955793;28;20617;-75
2022/01/01 01:03:44;;;;;;;835.23;424.17;;;13.00;99.90;;;;;;4955240;28;20203;-76
2022/01/01 01:06:12;;;;;;;520.20;258.43;;;12.90;99.90;;;;;;4953620;28;20743;-75
2022/01/01 01:08:46;;;;;;;887.57;459.00;;;12.90;99.90;;;;;;4957799;28;20216;-77
2022/01/01 01:11:13;;;;;;;527.73;276.40;;;12.90;99.90;;;;;;4939483;28;20228;-76
2022/01/01 01:13:44;;;;;;;482.17;239.33;;;12.80;99.90;;;;;;4960559;28;20250;-75
2022/01/01 01:16:11;;;;;;;163.13;85.50;;;12.90;99.90;;;;;;4960578;28;20204;-75
2022/01/01 01:18:41;;;;;;;392.77;226.20;;;13.00;99.90;;;;;;4958267;28;20244;-76
2022/01/01 01:21:08;;;;;;;558.23;359.37;;;13.00;99.90;;;;;;4951800;28;20291;-75
2022/01/01 01:23:35;;;;;;;114.70;50.73;;;13.00;99.90;;;;;;4954050;28;20201;-75
2022/01/01 01:26:02;;;;;;;935.43;567.30;;;12.90;99.90;;;;;;4953648;28;20274;-76
2022/01/01 01:28:31;;;;;;;171.03;80.53;;;12.90;99.90;;;;;;4939972;28;20287;-74
2022/01/01 01:30:58;;;;;;;846.97;493.93;;;13.00;99.90;;;;;;4938067;28;20256;-75
2022/01/01 01:33:25;;;;;;;962.93;561.27;;;13.00;99.90;;;;;;4956128;28;20211;-74
2022/01/01 01:35:51;;;;;;;601.43;316.13;;;13.00;99.90;;;;;;4955869;28;20231;-75
2022/01/01 01:38:18;;;;;;;578.87;321.13;;;13.00;99.90;;;;;;4952452;28;20223;-75
2022/01/01 01:40:45;;;;;;;178.87;85.03;;;13.00;99.90;;;;;;4956101;28;20299;-75
2022/01/01 01:43:13;;;;;;;130.13;58.90;;;13.00;99.90;;;;;;4941116;28;20215;-74
2022/01/01 01:45:42;;;;;;;170.37;66.07;;;13.00;99.90;;;;;;4953697;28;20295;-74
2022/01/01 01:48:09;;;;;;;294.90;112.07;;;12.90;99.90;;;;;;4950191;28;20212;-75
2022/01/01 01:50:37;;;;;;;366.00;151.23;;;12.90;99.90;;;;;;4959913;28;20701;-75
2022/01/01 01:53:04;;;;;;;956.93;468.87;;;12.80;99.90;;;;;;4952119;28;20212;-75
2022/01/01 01:55:31;;;;;;;313.07;114.20;;;12.90;99.90;;;;;;4953340;28;20240;-75
2022/01/01 01:57:58;;;;;;;638.67;275.67;;;12.90;99.90;;;;;;4954225;28;20784;-75
2022/01/01 02:03:11;;;;;;;136.43;56.53;;;12.80;99.90;;;;;;4947956;28;20614;-74
2022/01/01 02:05:39;;;;;;;315.67;102.00;;;12.70;99.90;;;;;;4952827;28;20229;-75
2022/01/01 02:08:07;;;;;;;185.70;69.57;;;12.80;99.90;;;;;;4955069;28;20196;-75
2022/01/01 02:10:35;;;;;;;434.47;162.23;;;12.80;99.90;;;;;;4952528;28;20341;-74
2022/01/01 02:13:14;;;;;;;331.83;107.40;;;12.80;99.90;;;;;;4954334;28;20283;-75
2022/01/01 02:18:14;;;;;;;134.80;55.17;;;12.80;99.90;;;;;;4957129;28;20274;-74
2022/01/01 02:20:41;;;;;;;118.03;52.70;;;12.80;99.90;;;;;;4934086;29;20307;-75
2022/01/01 02:23:11;;;;;;;683.43;236.97;;;12.70;99.90;;;;;;4952527;28;20295;-75
2022/01/01 02:25:38;;;;;;;1524.53;571.73;;;12.70;99.90;;;;;;4935882;29;20541;-75
2022/01/01 02:28:06;;;;;;;1962.17;662.47;;;12.80;99.90;;;;;;4962135;28;20231;-75
2022/01/01 02:30:33;;;;;;;590.47;244.77;;;12.70;99.90;;;;;;4943735;28;20310;-75
2022/01/01 02:33:00;;;;;;;430.70;153.93;;;12.80;99.90;;;;;;4959936;28;20282;-75
2022/01/01 02:35:27;;;;;;;199.43;74.00;;;12.80;99.90;;;;;;4963119;28;20673;-76
2022/01/01 02:37:53;;;;;;;668.90;250.00;;;12.70;99.90;;;;;;4957898;28;20262;-75
2022/01/01 02:40:20;;;;;;;1148.50;454.13;;;12.70;99.90;;;;;;4961869;28;20208;-76
2022/01/01 02:42:47;;;;;;;689.27;298.67;;;12.70;99.90;;;;;;4960064;28;20672;-75
2022/01/01 02:45:15;;;;;;;685.13;291.57;;;12.70;99.90;;;;;;4963084;28;20233;-74
2022/01/01 02:47:42;;;;;;;542.30;207.60;;;12.70;99.90;;;;;;4960691;28;20319;-75
2022/01/01 02:50:10;;;;;;;124.00;51.57;;;12.70;99.90;;;;;;4966109;28;20274;-73
2022/01/01 02:52:37;;;;;;;198.63;76.10;;;12.70;99.90;;;;;;4945287;29;20212;-74
2022/01/01 02:55:05;;;;;;;109.77;42.57;;;12.70;99.90;;;;;;4960527;28;20200;-75
2022/01/01 02:57:33;;;;;;;253.43;88.53;;;12.60;99.90;;;;;;4963877;28;20212;-75
2022/01/01 02:59:59;;;;;;;105.13;43.60;;;12.60;99.90;;;;;;4942436;28;20236;-75
2022/01/01 03:02:26;;;;;;;232.37;80.23;;;12.60;99.90;;;;;;4959748;28;20212;-74
2022/01/01 03:04:53;;;;;;;884.97;384.03;;;12.70;99.90;;;;;;4962896;28;20393;-76
2022/01/01 03:07:20;;;;;;;183.07;69.40;;;12.70;99.90;;;;;;4954875;28;20244;-75
2022/01/01 03:09:46;;;;;;;195.47;66.37;;;12.70;99.90;;;;;;4962217;28;20211;-75
2022/01/01 03:12:15;;;;;;;272.80;95.23;;;12.70;99.90;;;;;;4954615;29;20246;-76
2022/01/01 03:14:42;;;;;;;176.93;64.60;;;12.60;99.90;;;;;;4962908;28;20694;-76
2022/01/01 03:17:09;;;;;;;85.40;34.50;;;12.70;99.90;;;;;;4946066;28;20307;-74
2022/01/01 03:19:36;;;;;;;67.60;29.77;;;12.70;99.90;;;;;;4949438;28;20235;-74
2022/01/01 03:22:06;;;;;;;104.07;37.10;;;12.70;99.90;;;;;;4959680;28;20209;-73
2022/01/01 03:24:33;;;;;;;72.20;30.03;;;12.60;99.90;;;;;;4960388;28;20216;-76
2022/01/01 03:27:02;;;;;;;71.87;26.03;;;12.60;99.90;;;;;;4958728;28;20200;-75
2022/01/01 03:29:31;;;;;;;63.83;25.40;;;12.60;99.90;;;;;;4962740;28;20684;-74
2022/01/01 03:31:58;;;;;;;59.27;25.27;;;12.70;99.90;;;;;;4956756;28;20235;-74
2022/01/01 03:34:25;;;;;;;272.20;85.57;;;12.50;99.90;;;;;;4964684;28;20220;-74
2022/01/01 03:36:53;;;;;;;112.40;42.30;;;12.60;99.90;;;;;;4956371;28;20209;-75
2022/01/01 03:39:22;;;;;;;64.57;28.67;;;12.60;99.90;;;;;;4959248;28;20579;-75
2022/01/01 03:41:49;;;;;;;229.17;57.93;;;12.60;99.90;;;;;;4966160;28;20250;-75
2022/01/01 03:44:16;;;;;;;256.70;67.03;;;12.60;99.90;;;;;;4962409;28;20264;-74
2022/01/01 03:46:43;;;;;;;99.07;33.83;;;12.60;99.90;;;;;;4960770;28;20212;-75
2022/01/01 03:49:10;;;;;;;55.67;21.83;;;12.60;99.90;;;;;;4959625;28;20204;-75
2022/01/01 03:51:37;;;;;;;293.03;93.47;;;12.60;99.90;;;;;;4944647;29;20315;-75
2022/01/01 03:54:04;;;;;;;320.20;79.47;;;12.60;99.90;;;;;;4963305;28;20247;-75
2022/01/01 03:56:31;;;;;;;302.60;84.07;;;12.70;99.90;;;;;;4960036;28;20506;-75
2022/01/01 03:58:57;;;;;;;965.57;332.53;;;12.70;99.90;;;;;;4958354;28;20217;-74
2022/01/01 04:01:24;;;;;;;492.87;140.70;;;12.70;99.90;;;;;;4942637;28;20637;-75
2022/01/01 04:03:51;;;;;;;72.50;28.97;;;12.70;99.90;;;;;;4945344;28;20208;-75
2022/01/01 04:06:18;;;;;;;71.37;27.57;;;12.80;99.90;;;;;;4955022;28;20239;-74
2022/01/01 04:08:45;;;;;;;213.67;55.03;;;12.70;99.90;;;;;;4957670;28;20209;-75
2022/01/01 04:11:12;;;;;;;131.50;35.77;;;12.80;99.90;;;;;;4938229;28;20311;-75
2022/01/01 04:13:38;;;;;;;125.60;37.13;;;12.80;99.90;;;;;;4957672;28;20213;-75
2022/01/01 04:16:06;;;;;;;95.73;29.77;;;12.80;99.90;;;;;;4951533;28;20222;-75
2022/01/01 04:18:39;;;;;;;196.47;47.67;;;12.80;99.90;;;;;;4959894;28;20237;-76
2022/01/01 04:21:09;;;;;;;108.43;30.07;;;12.90;99.90;;;;;;4956610;28;20693;-75
2022/01/01 04:23:37;;;;;;;99.47;33.20;;;12.90;99.90;;;;;;4954604;28;20210;-74
2022/01/01 04:26:07;;;;;;;1244.67;429.43;;;12.90;99.90;;;;;;4938214;28;20245;-75
2022/01/01 04:28:35;;;;;;;186.17;49.87;;;12.90;99.90;;;;;;4954565;28;20267;-76
2022/01/01 04:31:04;;;;;;;82.63;27.77;;;12.90;99.90;;;;;;4956632;28;20564;-75
2022/01/01 04:33:30;;;;;;;61.83;23.53;;;13.00;99.90;;;;;;4939520;28;20217;-74
2022/01/01 04:35:57;;;;;;;112.10;33.00;;;12.90;99.90;;;;;;4940705;29;20232;-75
2022/01/01 04:38:38;;;;;;;52.23;21.27;;;12.90;99.90;;;;;;4958160;28;20963;-75
2022/01/01 04:41:06;;;;;;;63.30;22.33;;;12.90;99.90;;;;;;4951284;28;20262;-75
2022/01/01 04:43:33;;;;;;;66.20;22.40;;;12.90;99.90;;;;;;4940490;29;20303;-75
2022/01/01 04:46:00;;;;;;;81.93;26.83;;;13.00;99.90;;;;;;4954604;28;20248;-74
2022/01/01 04:48:27;;;;;;;346.87;82.60;;;13.00;99.90;;;;;;4963779;28;20216;-75
2022/01/01 04:50:54;;;;;;;351.73;99.23;;;13.00;99.90;;;;;;4959446;28;20731;-76
2022/01/01 04:53:21;;;;;;;142.17;37.47;;;13.00;99.90;;;;;;4961418;28;20247;-75
2022/01/01 04:55:48;;;;;;;68.60;26.30;;;13.00;99.90;;;;;;4956774;28;20231;-74
2022/01/01 04:58:15;;;;;;;66.43;24.63;;;13.00;99.90;;;;;;4954436;28;20206;-75
2022/01/01 05:00:42;;;;;;;56.50;26.70;;;13.00;99.90;;;;;;4952209;28;20208;-75
2022/01/01 05:03:09;;;;;;;101.77;35.53;;;12.90;99.90;;;;;;4954903;28;20223;-75
2022/01/01 05:05:36;;;;;;;158.43;49.17;;;13.00;99.90;;;;;;4954797;28;20220;-75
2022/01/01 05:08:04;;;;;;;515.90;164.67;;;12.90;99.90;;;;;;4956452;28;20211;-74
2022/01/01 05:10:31;;;;;;;139.13;42.43;;;12.90;99.90;;;;;;4955149;28;20640;-75
2022/01/01 05:12:57;;;;;;;124.20;37.60;;;12.90;99.90;;;;;;4954468;28;20248;-75
2022/01/01 05:15:24;;;;;;;146.50;39.17;;;12.90;99.90;;;;;;4950832;28;20208;-75
2022/01/01 05:17:51;;;;;;;296.23;74.10;;;12.90;99.90;;;;;;4952089;28;20236;-75
2022/01/01 05:20:18;;;;;;;250.53;64.00;;;13.00;99.90;;;;;;4958566;28;20252;-74
2022/01/01 05:22:44;;;;;;;84.10;32.63;;;13.00;99.90;;;;;;4960016;28;20255;-76
2022/01/01 05:25:12;;;;;;;552.57;148.90;;;13.00;99.90;;;;;;4954837;28;20311;-75
2022/01/01 05:27:40;;;;;;;131.33;42.03;;;13.00;99.90;;;;;;4933148;29;20222;-75
2022/01/01 05:30:08;;;;;;;78.17;29.83;;;13.00;99.90;;;;;;4951697;28;20235;-75
2022/01/01 05:32:35;;;;;;;67.77;27.90;;;13.00;99.90;;;;;;4961779;28;20323;-75
2022/01/01 05:35:06;;;;;;;60.83;27.40;;;13.00;99.90;;;;;;4953928;28;20305;-75
2022/01/01 05:37:32;;;;;;;64.27;27.97;;;13.00;99.90;;;;;;4960491;28;20219;-75
2022/01/01 05:39:59;;;;;;;79.20;28.93;;;13.10;99.90;;;;;;4950361;28;20721;-75
2022/01/01 05:42:26;;;;;;;63.40;26.60;;;13.00;99.90;;;;;;4957459;28;20207;-74
2022/01/01 05:44:53;;;;;;;82.13;30.00;;;13.10;99.90;;;;;;4941128;29;20259;-75
2022/01/01 05:47:20;;;;;;;108.70;38.10;;;13.00;99.90;;;;;;4949722;28;20216;-75
2022/01/01 05:49:47;;;;;;;346.25;92.65;;;13.00;99.90;;;;;;4956976;28;20468;-75
2022/01/01 05:52:13;;;;;;;139.50;43.47;;;13.20;99.90;;;;;;4944855;28;20231;-75
2022/01/01 05:54:40;;;;;;;182.73;51.07;;;13.20;99.90;;;;;;4948150;28;20618;-75
2022/01/01 05:57:07;;;;;;;110.53;37.97;;;13.20;99.90;;;;;;4951582;28;20439;-75
2022/01/01 05:59:34;;;;;;;68.23;27.53;;;13.20;99.90;;;;;;4949270;28;20303;-75
2022/01/01 06:02:00;;;;;;;62.50;25.57;;;13.20;99.90;;;;;;4946198;28;20799;-75
2022/01/01 06:04:27;;;;;;;64.03;24.13;;;13.10;99.90;;;;;;4960027;28;21095;-76
2022/01/01 06:06:56;;;;;;;62.33;22.73;;;13.20;99.90;;;;;;4954071;28;20215;-75
2022/01/01 06:09:22;;;;;;;200.80;44.07;;;13.10;99.90;;;;;;4954440;28;20203;-75
2022/01/01 06:11:50;;;;;;;59.13;23.40;;;13.10;99.90;;;;;;4953886;28;20318;-76
2022/01/01 06:14:17;;;;;;;147.30;39.90;;;13.20;99.90;;;;;;4956895;28;20208;-75
2022/01/01 06:16:43;;;;;;;51.77;22.53;;;13.20;99.90;;;;;;4954499;28;20212;-74
2022/01/01 06:19:10;;;;;;;50.33;21.57;;;13.20;99.90;;;;;;4960534;28;20668;-76
2022/01/01 06:21:37;;;;;;;51.90;20.63;;;13.20;99.90;;;;;;4964016;28;20719;-75
2022/01/01 06:24:04;;;;;;;62.53;22.93;;;13.20;99.90;;;;;;4962507;28;20652;-76
2022/01/01 06:26:34;;;;;;;57.13;21.10;;;13.20;99.90;;;;;;4957143;28;20208;-76
2022/01/01 06:29:02;;;;;;;72.93;24.93;;;13.20;99.90;;;;;;4956372;28;20367;-75
2022/01/01 06:31:31;;;;;;;50.10;20.53;;;13.20;99.90;;;;;;4957062;28;20294;-77
2022/01/01 06:33:57;;;;;;;53.57;20.87;;;13.20;99.90;;;;;;4956339;28;20296;-75
2022/01/01 06:36:26;;;;;;;47.27;19.37;;;13.20;99.90;;;;;;4950702;28;20251;-75
2022/01/01 06:38:53;;;;;;;155.80;39.50;;;13.20;99.90;;;;;;4951913;28;20251;-74
2022/01/01 06:41:20;;;;;;;102.30;29.83;;;13.20;99.90;;;;;;4951864;28;20279;-74
2022/01/01 06:43:47;;;;;;;57.83;20.30;;;13.10;99.90;;;;;;4943220;28;20234;-76
2022/01/01 06:46:14;;;;;;;37.60;16.07;;;13.10;99.90;;;;;;4954489;28;20251;-75
2022/01/01 06:48:40;;;;;;;54.03;20.97;;;13.10;99.90;;;;;;4960384;28;20216;-76
2022/01/01 06:51:07;;;;;;;52.03;20.07;;;13.00;99.90;;;;;;4957961;28;20299;-75
2022/01/01 06:53:34;;;;;;;51.70;18.07;;;12.90;99.90;;;;;;4962725;28;20263;-76
2022/01/01 06:56:05;;;;;;;60.13;21.57;;;12.90;99.90;;;;;;4955402;28;20215;-76
2022/01/01 06:58:33;;;;;;;339.23;77.57;;;12.90;99.90;;;;;;4954684;28;20300;-74
2022/01/01 07:01:00;;;;;;;133.80;37.30;;;12.80;99.90;;;;;;4948613;28;20213;-77
2022/01/01 07:03:27;;;;;;;43.00;16.90;;;12.80;99.90;;;;;;4953786;28;20209;-74
2022/01/01 07:05:54;;;;;;;37.57;14.97;;;12.70;99.90;;;;;;4956674;28;20232;-75
2022/01/01 07:08:21;;;;;;;33.97;14.33;;;12.70;99.90;;;;;;4951369;28;20219;-75
2022/01/01 07:10:48;;;;;;;46.13;17.83;;;12.60;99.90;;;;;;4954073;28;20294;-75
2022/01/01 07:13:16;;;;;;;35.43;14.57;;;12.60;99.90;;;;;;4953543;28;20305;-75
2022/01/01 07:15:43;;;;;;;52.60;18.90;;;12.50;99.90;;;;;;4957358;28;20604;-76
2022/01/01 07:18:10;;;;;;;32.83;15.07;;;12.60;99.90;;;;;;4955124;28;20232;-75
2022/01/01 07:20:37;;;;;;;95.77;32.73;;;12.50;99.90;;;;;;4960296;28;20220;-74
2022/01/01 07:23:04;;;;;;;113.80;36.47;;;12.50;99.90;;;;;;4944258;29;20216;-76
2022/01/01 07:25:31;;;;;;;50.03;17.47;;;12.40;99.90;;;;;;4954320;28;20221;-75
2022/01/01 07:27:58;;;;;;;45.33;16.47;;;12.40;99.90;;;;;;4952949;28;20640;-75
2022/01/01 07:30:25;;;;;;;579.67;183.00;;;12.30;99.90;;;;;;4953098;28;20205;-75
2022/01/01 07:32:52;;;;;;;135.07;42.93;;;12.30;99.90;;;;;;4954914;28;20240;-75
2022/01/01 07:35:21;;;;;;;78.30;27.03;;;12.40;99.90;;;;;;4954179;28;20294;-75
2022/01/01 07:37:48;;;;;;;45.63;17.07;;;12.40;99.90;;;;;;4953271;28;20256;-75
2022/01/01 07:40:17;;;;;;;45.50;15.63;;;12.50;99.90;;;;;;4954177;28;20295;-75
2022/01/01 07:42:44;;;;;;;97.80;31.70;;;12.60;99.90;;;;;;4952286;28;20263;-74
2022/01/01 07:45:12;;;;;;;57.27;16.20;;;12.60;99.90;;;;;;4952165;29;20205;-79
2022/01/01 07:47:39;;;;;;;59.40;22.03;;;12.60;99.90;;;;;;4952291;28;20966;-75
2022/01/01 07:50:07;;;;;;;73.23;23.30;;;12.60;99.90;;;;;;4960459;28;20295;-75
2022/01/01 07:52:35;;;;;;;53.97;18.67;;;12.60;99.90;;;;;;4959313;28;20236;-75
2022/01/01 07:55:02;;;;;;;376.83;96.53;;;12.70;99.90;;;;;;4942954;28;20215;-76
2022/01/01 07:57:29;;;;;;;113.27;31.53;;;12.70;99.90;;;;;;4957196;28;20204;-75
2022/01/01 07:59:57;;;;;;;34.20;13.87;;;12.70;99.90;;;;;;4970949;28;20232;-75
2022/01/01 08:02:24;;;;;;;178.77;47.37;;;12.70;99.90;;;;;;4960180;28;20270;-75
2022/01/01 08:04:51;;;;;;;164.27;42.23;;;12.70;99.90;;;;;;4938591;28;20243;-76
2022/01/01 08:07:19;;;;;;;199.63;45.27;;;12.70;99.90;;;;;;4955498;28;20219;-76
2022/01/01 08:10:07;;;;;;;38.03;14.40;;;12.80;99.90;;;;;;4959039;28;20200;-76
2022/01/01 08:12:34;;;;;;;159.30;38.97;;;12.70;99.90;;;;;;4957957;28;20223;-76
2022/01/01 08:15:02;;;;;;;28.77;11.63;;;12.70;99.90;;;;;;4937394;29;20209;-75
2022/01/01 08:17:29;;;;;;;257.83;54.80;;;12.70;99.90;;;;;;4962375;28;20212;-76
2022/01/01 08:19:57;;;;;;;23.67;10.60;;;12.70;99.90;;;;;;4956379;28;20328;-75
2022/01/01 08:22:25;;;;;;;24.53;9.87;;;12.60;99.90;;;;;;4958713;28;20287;-76
2022/01/01 08:24:51;;;;;;;228.53;55.23;;;12.70;99.90;;;;;;4952205;28;20211;-76
2022/01/01 08:27:18;;;;;;;158.27;42.67;;;12.70;99.90;;;;;;4937501;28;20312;-76
2022/01/01 08:29:45;;;;;;;49.97;16.47;;;12.70;99.90;;;;;;4952530;28;20220;-75
2022/01/01 08:32:12;;;;;;;17.20;8.07;;;12.80;99.90;;;;;;4952828;28;20270;-75
2022/01/01 08:34:39;;;;;;;27.67;9.57;;;12.80;99.90;;;;;;4947664;29;20710;-74
2022/01/01 08:37:05;;;;;;;44.67;12.87;;;12.80;99.90;;;;;;4952390;28;20760;-75
2022/01/01 08:39:32;;;;;;;277.30;61.13;;;12.80;99.90;;;;;;4954845;28;20683;-75
2022/01/01 08:41:59;;;;;;;251.10;66.20;;;12.90;99.90;;;;;;4953491;28;20213;-75
2022/01/01 08:44:26;;;;;;;85.33;22.93;;;12.80;99.90;;;;;;4935058;29;20240;-75
2022/01/01 08:46:54;;;;;;;1353.10;490.73;;;12.90;99.90;;;;;;4954360;28;20247;-76
2022/01/01 08:49:20;;;;;;;272.17;79.67;;;12.90;99.90;;;;;;4960311;28;20339;-75
2022/01/01 08:51:48;;;;;;;37.03;14.80;;;12.90;99.90;;;;;;4955363;28;20338;-75
2022/01/01 08:54:15;;;;;;;110.00;26.33;;;12.90;99.90;;;;;;4950682;28;20307;-75
2022/01/01 08:56:42;;;;;;;37.33;15.03;;;12.90;99.90;;;;;;4951194;28;20209;-75
2022/01/01 08:59:09;;;;;;;23.47;9.43;;;12.90;99.90;;;;;;4950566;28;20295;-75
2022/01/01 09:01:37;;;;;;;171.17;47.10;;;13.00;99.90;;;;;;4937307;28;20211;-76
2022/01/01 09:04:06;;;;;;;222.77;48.83;;;13.00;99.90;;;;;;4951490;29;20212;-75
2022/01/01 09:06:33;;;;;;;324.60;81.63;;;13.00;99.90;;;;;;4955007;28;20260;-75
2022/01/01 09:09:00;;;;;;;22.73;9.70;;;13.10;99.90;;;;;;4936841;29;20208;-75
2022/01/01 09:11:27;;;;;;;962.17;418.90;;;13.20;99.90;;;;;;4933609;28;20582;-76
2022/01/01 09:13:54;;;;;;;257.13;82.90;;;13.20;99.90;;;;;;4937019;28;20352;-74
2022/01/01 09:16:23;;;;;;;61.60;21.83;;;13.30;99.90;;;;;;4952021;28;20262;-75
2022/01/01 09:18:49;;;;;;;28.20;10.30;;;13.30;99.90;;;;;;4951178;28;20324;-75
2022/01/01 09:21:17;;;;;;;24.60;8.93;;;13.30;99.90;;;;;;4955780;28;20220;-74
2022/01/01 09:23:44;;;;;;;80.07;24.27;;;13.40;99.90;;;;;;4957645;28;20569;-74
2022/01/01 09:26:12;;;;;;;820.77;333.00;;;13.40;99.90;;;;;;4951729;28;20259;-74
2022/01/01 09:28:39;;;;;;;255.20;85.73;;;13.40;99.90;;;;;;4953713;28;20658;-77
2022/01/01 09:31:06;;;;;;;379.83;129.40;;;13.50;99.90;;;;;;4953755;28;20267;-73
2022/01/01 09:33:33;;;;;;;110.47;39.17;;;13.50;99.90;;;;;;4956180;28;20240;-74
2022/01/01 09:36:02;;;;;;;189.60;59.53;;;13.50;99.90;;;;;;4954845;28;20256;-74
2022/01/01 09:38:31;;;;;;;147.17;45.67;;;13.50;99.90;;;;;;4956606;28;20649;-74
2022/01/01 09:40:59;;;;;;;138.90;50.80;;;13.50;99.90;;;;;;4952851;28;20303;-75
2022/01/01 09:43:28;;;;;;;129.70;41.87;;;13.50;99.90;;;;;;4948043;29;20223;-74
2022/01/01 09:45:57;;;;;;;60.50;23.93;;;13.50;99.90;;;;;;4959046;28;20210;-74
2022/01/01 09:48:26;;;;;;;157.67;83.33;;;13.60;99.90;;;;;;4934082;29;20238;-75
2022/01/01 09:50:55;;;;;;;134.53;48.20;;;13.60;99.90;;;;;;4955653;28;20308;-78
2022/01/01 09:53:24;;;;;;;49.03;23.57;;;13.70;99.90;;;;;;4949591;28;20269;-73
2022/01/01 09:55:55;;;;;;;136.53;50.10;;;13.70;99.90;;;;;;4941663;28;20213;-73
2022/01/01 09:58:23;;;;;;;38.80;17.23;;;13.70;99.90;;;;;;4955784;28;20230;-73
2022/01/01 10:00:52;;;;;;;421.10;162.93;;;13.80;99.90;;;;;;4955710;28;20282;-74
2022/01/01 10:03:43;;;;;;;232.57;73.63;;;13.80;99.90;;;;;;4955539;28;20200;-72
2022/01/01 10:06:14;;;;;;;103.80;34.73;;;13.80;99.90;;;;;;4935466;29;20225;-74
2022/01/01 10:08:54;;;;;;;86.23;30.30;;;13.90;99.90;;;;;;4958796;28;20247;-74
2022/01/01 10:11:23;;;;;;;251.47;86.07;;;13.90;99.90;;;;;;4950668;28;20207;-73
2022/01/01 10:13:50;;;;;;;329.77;99.20;;;13.90;99.90;;;;;;4950648;28;20242;-73
2022/01/01 10:16:17;;;;;;;62.77;23.70;;;13.90;99.90;;;;;;4954435;28;20205;-74
2022/01/01 10:18:50;;;;;;;63.90;21.60;;;13.90;99.90;;;;;;4949879;29;20243;-74
2022/01/01 10:21:20;;;;;;;331.23;113.10;;;13.90;99.90;;;;;;4951819;28;20248;-75
2022/01/01 10:23:51;;;;;;;269.03;83.20;;;13.90;99.90;;;;;;4956082;28;20263;-75
2022/01/01 10:29:17;;;;;;;441.70;162.30;;;13.80;99.90;;;;;;4959340;28;20207;-74
2022/01/01 10:31:58;;;;;;;24.83;10.70;;;13.80;99.90;;;;;;4932855;28;20616;-74
2022/01/01 10:34:34;;;;;;;26.63;12.30;;;13.80;99.90;;;;;;4950531;28;20661;-75
2022/01/01 10:37:28;;;;;;;330.53;97.23;;;13.80;99.90;;;;;;4952519;28;20727;-75
2022/01/01 10:39:55;;;;;;;28.47;11.43;;;13.80;99.90;;;;;;4948695;29;20203;-74
2022/01/01 10:42:23;;;;;;;25.87;10.07;;;13.80;99.90;;;;;;4949693;29;20672;-74
2022/01/01 10:44:53;;;;;;;31.60;10.57;;;13.90;99.90;;;;;;4937120;28;21023;-74
2022/01/01 10:47:31;;;;;;;268.43;69.13;;;13.80;99.90;;;;;;4953315;28;20552;-74
2022/01/01 10:52:45;;;;;;;309.93;118.37;;;13.90;99.90;;;;;;4958020;28;20232;-74
2022/01/01 10:55:13;;;;;;;124.87;42.53;;;13.90;99.90;;;;;;4944707;28;20219;-74
2022/01/01 10:57:43;;;;;;;28.03;12.97;;;14.00;99.90;;;;;;4958565;28;20208;-74
2022/01/01 11:00:16;;;;;;;632.53;212.13;;;14.00;99.90;;;;;;4958558;28;20223;-75
2022/01/01 11:02:49;;;;;;;248.00;94.50;;;14.00;99.90;;;;;;4956401;28;20263;-75
2022/01/01 11:05:27;;;;;;;278.80;118.50;;;14.00;99.90;;;;;;4960805;28;20274;-74
2022/01/01 11:07:54;;;;;;;503.90;225.57;;;14.00;99.90;;;;;;4956632;28;21029;-74
2022/01/01 11:10:22;;;;;;;63.30;26.40;;;14.10;99.90;;;;;;4952981;28;20222;-72
2022/01/01 11:12:50;;;;;;;320.07;98.13;;;14.00;99.90;;;;;;4932487;29;20224;-74
2022/01/01 11:15:18;;;;;;;86.60;30.87;;;14.00;99.90;;;;;;4940601;29;20209;-74
2022/01/01 11:17:46;;;;;;;31.03;13.73;;;14.10;99.90;;;;;;4954367;28;20350;-75
2022/01/01 11:20:14;;;;;;;86.77;30.57;;;14.10;99.90;;;;;;4955388;28;20221;-75
2022/01/01 11:22:47;;;;;;;27.10;10.43;;;14.10;99.90;;;;;;4955919;28;20207;-74
2022/01/01 11:25:14;;;;;;;34.93;12.40;;;14.10;99.90;;;;;;4955501;28;20227;-75
2022/01/01 11:27:41;;;;;;;18.23;8.70;;;14.10;99.90;;;;;;4955175;28;20241;-74
2022/01/01 11:30:11;;;;;;;329.83;104.53;;;14.00;99.90;;;;;;4942151;29;20317;-74
2022/01/01 11:32:48;;;;;;;100.23;33.50;;;14.00;99.90;;;;;;4948646;28;20731;-75
2022/01/01 11:35:19;;;;;;;21.27;9.43;;;14.00;99.90;;;;;;4940381;28;20306;-75
2022/01/01 11:38:08;;;;;;;23.13;9.77;;;14.00;99.90;;;;;;4953311;28;20204;-74
2022/01/01 11:41:02;;;;;;;114.83;39.67;;;14.10;99.90;;;;;;4948222;29;20506;-75
2022/01/01 11:43:51;;;;;;;132.33;42.70;;;14.10;99.90;;;;;;4945621;29;20248;-75
2022/01/01 11:46:29;;;;;;;14.83;6.40;;;14.20;99.90;;;;;;4936386;28;20208;-75
2022/01/01 11:49:01;;;;;;;13.30;6.47;;;14.20;99.90;;;;;;4957259;28;20200;-75
2022/01/01 11:51:50;;;;;;;16.20;8.20;;;14.10;99.90;;;;;;4943880;29;20842;-74
2022/01/01 11:54:30;;;;;;;18.27;7.13;;;14.20;99.90;;;;;;4946034;28;20238;-73
2022/01/01 11:57:01;;;;;;;32.43;12.60;;;14.20;99.90;;;;;;4959135;28;20264;-74
2022/01/01 11:59:37;;;;;;;32.47;12.40;;;14.20;99.90;;;;;;4935634;28;20212;-75
2022/01/01 12:02:20;;;;;;;17.97;8.83;;;14.30;99.90;;;;;;4930106;28;20262;-75
2022/01/01 12:04:56;;;;;;;14.00;7.03;;;14.30;99.90;;;;;;4934824;28;20220;-74
2022/01/01 12:07:24;;;;;;;29.07;10.00;;;14.30;99.90;;;;;;4948045;28;20201;-73
2022/01/01 12:10:05;;;;;;;54.80;17.67;;;14.30;99.90;;;;;;4948855;28;20212;-75
2022/01/01 12:13:06;;;;;;;77.03;26.00;;;14.40;99.90;;;;;;4946041;28;20768;-74
2022/01/01 12:15:51;;;;;;;84.87;25.47;;;14.40;99.90;;;;;;4943209;28;20208;-73
2022/01/01 12:18:23;;;;;;;28.57;11.33;;;14.50;99.90;;;;;;4949773;28;20805;-75
2022/01/01 12:21:02;;;;;;;72.97;20.67;;;14.50;99.90;;;;;;4967335;28;20537;-76
2022/01/01 12:23:39;;;;;;;33.20;11.97;;;14.40;99.90;;;;;;4950406;28;20295;-75
2022/01/01 12:26:08;;;;;;;15.17;7.53;;;14.50;99.90;;;;;;4951265;28;20204;-76
2022/01/01 12:28:39;;;;;;;19.37;8.43;;;14.50;99.90;;;;;;4953369;28;20219;-75
2022/01/01 12:31:21;;;;;;;15.13;7.00;;;14.50;99.90;;;;;;4956397;28;20211;-74
2022/01/01 12:33:56;;;;;;;15.53;6.20;;;14.50;99.90;;;;;;4952006;28;20328;-74
2022/01/01 12:36:29;;;;;;;12.97;6.07;;;14.50;99.90;;;;;;4939073;29;20211;-74
2022/01/01 12:39:00;;;;;;;12.10;5.53;;;14.50;99.90;;;;;;4954484;28;20216;-75
2022/01/01 12:41:46;;;;;;;12.17;5.80;;;14.40;99.90;;;;;;4955339;28;20617;-76